Time;durP1;ratioP1;P1;durP2;ratioP2;P2;SDS_P1;SDS_P2;PMS_P1;PMS_P2;Temp;Humidity;BMP_temperature;BMP_pressure;BME280_temperature;BME280_humidity;BME280_pressure;Samples;Min_cycle;Max_cycle;Signal;HPM_P1;HPM_P2
2022/04/22 00:01:29;;;;;;;;;;;11.50;99.90;;;;;;5049579;28;19924;-63
2022/04/22 00:03:55;;;;;;;;;;;11.50;99.90;;;;;;5061045;28;19916;-62
2022/04/22 00:06:20;;;;;;;;;;;11.40;99.90;;;;;;5067900;28;19912;-60
2022/04/22 00:08:46;;;;;;;;;;;11.40;99.90;;;;;;5046340;28;19948;-61
2022/04/22 00:11:29;;;;;;;;;;;11.30;99.90;;;;;;5048220;28;20391;-62
2022/04/22 00:13:55;;;;;;;;;;;11.20;99.90;;;;;;5051397;28;20387;-62
2022/04/22 00:16:21;;;;;;;;;;;11.00;99.90;;;;;;5052215;28;19908;-62
2022/04/22 00:18:47;;;;;;;;;;;10.90;99.90;;;;;;5047600;28;20440;-61
2022/04/22 00:21:13;;;;;;;;;;;10.80;99.90;;;;;;5049873;28;19999;-61
2022/04/22 00:23:38;;;;;;;;;;;10.70;99.90;;;;;;5051643;28;19962;-62
2022/04/22 00:26:04;;;;;;;;;;;10.60;99.90;;;;;;5048756;28;19913;-63
2022/04/22 00:28:29;;;;;;;;;;;10.50;99.90;;;;;;5047542;28;19962;-62
2022/04/22 00:30:55;;;;;;;;;;;10.50;99.90;;;;;;5052111;28;19909;-62
2022/04/22 00:33:20;;;;;;;;;;;10.30;99.90;;;;;;5055203;28;20049;-62
2022/04/22 00:35:46;;;;;;;;;;;10.20;99.90;;;;;;5067003;28;19962;-60
2022/04/22 00:38:12;;;;;;;;;;;10.10;99.90;;;;;;5054986;28;19916;-62
2022/04/22 00:40:37;;;;;;;;;;;10.00;99.90;;;;;;5070521;28;19915;-63
2022/04/22 00:43:19;;;;;;;;;;;10.00;99.90;;;;;;5059408;28;19927;-62
2022/04/22 00:45:45;;;;;;;;;;;10.00;99.90;;;;;;5066701;28;19919;-62
2022/04/22 00:48:11;;;;;;;;;;;10.00;99.90;;;;;;5058987;28;20294;-60
2022/04/22 00:50:37;;;;;;;;;;;10.00;99.90;;;;;;5058603;28;19924;-63
2022/04/22 00:53:02;;;;;;;;;;;10.00;99.90;;;;;;5061967;28;19916;-62
2022/04/22 00:55:29;;;;;;;;;;;10.00;99.90;;;;;;5052199;28;19909;-61
2022/04/22 00:57:55;;;;;;;;;;;10.00;99.90;;;;;;5050362;28;19909;-63
2022/04/22 01:00:20;;;;;;;;;;;10.00;99.90;;;;;;5060168;28;19958;-63
2022/04/22 01:02:46;;;;;;;;;;;9.90;99.90;;;;;;5049046;28;19963;-61
2022/04/22 01:10:40;;;;;;;;;;;9.60;99.90;;;;;;5063286;28;19969;-62
2022/04/22 01:13:07;;;;;;;;;;;9.60;99.90;;;;;;5055918;28;20577;-62
2022/04/22 01:15:36;;;;;;;;;;;9.60;99.90;;;;;;5052851;28;19913;-60
2022/04/22 01:18:01;;;;;;;;;;;9.50;99.90;;;;;;5056100;28;20266;-62
2022/04/22 01:20:27;;;;;;;;;;;9.50;99.90;;;;;;5059030;28;19920;-62
2022/04/22 01:22:52;;;;;;;;;;;9.40;99.90;;;;;;5052031;28;19909;-63
2022/04/22 01:25:18;;;;;;;;;;;9.30;99.90;;;;;;5061434;28;20893;-60
2022/04/22 01:27:46;;;;;;;;;;;9.30;99.90;;;;;;5050938;28;20353;-62
2022/04/22 01:30:11;;;;;;;;;;;9.20;99.90;;;;;;5046567;28;20293;-63
2022/04/22 01:32:37;;;;;;;;;;;9.10;99.90;;;;;;5050503;28;19909;-63
2022/04/22 01:35:03;;;;;;;;;;;9.00;99.90;;;;;;5049256;28;20278;-63
2022/04/22 01:37:29;;;;;;;;;;;9.00;99.90;;;;;;5047778;28;19915;-63
2022/04/22 01:39:54;;;;;;;;;;;8.90;99.90;;;;;;5053755;28;19916;-63
2022/04/22 01:42:20;;;;;;;;;;;8.80;99.90;;;;;;5051208;28;19919;-63
2022/04/22 01:44:46;;;;;;;;;;;8.80;99.90;;;;;;5049990;28;19958;-63
2022/04/22 01:47:12;;;;;;;;;;;8.80;99.90;;;;;;5049665;28;19912;-63
2022/04/22 01:49:37;;;;;;;;;;;8.70;99.90;;;;;;5051054;28;20298;-62
2022/04/22 01:52:03;;;;;;;;;;;8.70;99.90;;;;;;5049798;28;19908;-62
2022/04/22 01:54:28;;;;;;;;;;;8.60;99.90;;;;;;5054483;28;20002;-62
2022/04/22 01:56:54;;;;;;;;;;;8.60;99.90;;;;;;5060659;28;19955;-60
2022/04/22 01:59:19;;;;;;;;;;;8.60;99.90;;;;;;5055020;28;20284;-63
2022/04/22 02:01:44;;;;;;;;;;;8.60;99.90;;;;;;5049707;28;19982;-61
2022/04/22 02:04:10;;;;;;;;;;;8.60;99.90;;;;;;5049917;28;19916;-62
2022/04/22 02:06:35;;;;;;;;;;;8.60;99.90;;;;;;5056005;22;20326;-60
2022/04/22 02:09:01;;;;;;;;;;;8.70;99.90;;;;;;5032808;28;19962;-60
2022/04/22 02:11:26;;;;;;;;;;;8.60;99.90;;;;;;5030425;28;20085;-57
2022/04/22 02:13:52;;;;;;;;;;;8.60;99.90;;;;;;5031795;28;19916;-58
2022/04/22 02:16:17;;;;;;;;;;;8.50;99.90;;;;;;5028396;28;19909;-59
2022/04/22 02:18:43;;;;;;;;;;;8.50;99.90;;;;;;5028855;28;19909;-61
2022/04/22 02:21:09;;;;;;;;;;;8.40;99.90;;;;;;5028908;28;20575;-59
2022/04/22 02:23:35;;;;;;;;;;;8.40;99.90;;;;;;5029871;28;19909;-59
2022/04/22 02:26:01;;;;;;;;;;;8.40;99.90;;;;;;5037355;28;19913;-59
2022/04/22 02:28:33;;;;;;;;;;;8.30;99.90;;;;;;5034593;28;20006;-59
2022/04/22 02:31:06;;;;;;;;;;;8.20;99.90;;;;;;5031336;28;20024;-58
2022/04/22 02:33:32;;;;;;;;;;;8.20;99.90;;;;;;5029472;28;19943;-58
2022/04/22 02:35:59;;;;;;;;;;;8.20;99.90;;;;;;5032367;28;19916;-60
2022/04/22 02:38:26;;;;;;;;;;;8.20;99.90;;;;;;5039626;28;20065;-58
2022/04/22 02:46:20;;;;;;;;;;;8.30;99.90;;;;;;5029989;28;19920;-60
2022/04/22 02:48:45;;;;;;;;;;;8.30;99.90;;;;;;5028965;28;19909;-57
2022/04/22 02:51:11;;;;;;;;;;;8.30;99.90;;;;;;5031615;28;19909;-59
2022/04/22 02:53:36;;;;;;;;;;;8.30;99.90;;;;;;5026917;28;19913;-58
2022/04/22 02:56:02;;;;;;;;;;;8.30;99.90;;;;;;5029915;28;19913;-60
2022/04/22 02:58:27;;;;;;;;;;;8.30;99.90;;;;;;5026828;28;19909;-58
2022/04/22 03:00:53;;;;;;;;;;;8.30;99.90;;;;;;5028111;28;19931;-58
2022/04/22 03:03:18;;;;;;;;;;;8.40;99.90;;;;;;5035556;28;19935;-56
2022/04/22 03:05:44;;;;;;;;;;;8.40;99.90;;;;;;5029446;28;20299;-60
2022/04/22 03:08:09;;;;;;;;;;;8.50;99.90;;;;;;5029582;28;19935;-59
2022/04/22 03:10:35;;;;;;;;;;;8.50;99.90;;;;;;5029752;28;20298;-58
2022/04/22 03:13:01;;;;;;;;;;;8.60;99.90;;;;;;5024688;28;20339;-57
2022/04/22 03:15:27;;;;;;;;;;;8.60;99.90;;;;;;5028281;28;20023;-57
2022/04/22 03:17:52;;;;;;;;;;;8.50;99.90;;;;;;5032408;28;20378;-59
2022/04/22 03:20:18;;;;;;;;;;;8.50;99.90;;;;;;5033198;28;20051;-60
2022/04/22 03:22:44;;;;;;;;;;;8.60;99.90;;;;;;5030125;28;19956;-58
2022/04/22 03:25:10;;;;;;;;;;;8.70;99.90;;;;;;5031238;28;19916;-60
2022/04/22 03:27:35;;;;;;;;;;;8.70;99.90;;;;;;5029115;28;20260;-58
2022/04/22 03:30:02;;;;;;;;;;;8.60;99.90;;;;;;5028450;28;20707;-58
2022/04/22 03:32:28;;;;;;;;;;;8.60;99.90;;;;;;5027654;28;20354;-60
2022/04/22 03:34:53;;;;;;;;;;;8.60;99.90;;;;;;5028084;28;19962;-59
2022/04/22 03:37:19;;;;;;;;;;;8.60;99.90;;;;;;5029111;28;19909;-59
2022/04/22 03:39:44;;;;;;;;;;;8.50;99.90;;;;;;5028583;28;19947;-59
2022/04/22 03:42:09;;;;;;;;;;;8.50;99.90;;;;;;5027219;28;19979;-59
2022/04/22 03:44:36;;;;;;;;;;;8.40;99.90;;;;;;5032187;28;19915;-59
2022/04/22 03:47:03;;;;;;;;;;;8.40;99.90;;;;;;5029008;28;19944;-60
2022/04/22 03:49:29;;;;;;;;;;;8.40;99.90;;;;;;5026344;28;19916;-60
2022/04/22 03:51:54;;;;;;;;;;;8.30;99.90;;;;;;5028720;28;19978;-58
2022/04/22 03:54:22;;;;;;;;;;;8.30;99.90;;;;;;5027762;28;19966;-56
2022/04/22 03:59:32;;;;;;;;;;;8.00;99.90;;;;;;5025780;28;19916;-59
2022/04/22 04:01:57;;;;;;;;;;;7.80;99.90;;;;;;5030827;28;19913;-58
2022/04/22 04:04:23;;;;;;;;;;;7.70;99.90;;;;;;5030851;28;19909;-59
2022/04/22 04:06:48;;;;;;;;;;;7.60;99.90;;;;;;5039656;28;19917;-57
2022/04/22 04:17:26;;;;;;;;;;;7.50;99.90;;;;;;5035305;28;19966;-58
2022/04/22 04:25:20;;;;;;;;;;;7.50;99.90;;;;;;5029975;28;19951;-58
2022/04/22 04:27:46;;;;;;;;;;;7.50;99.90;;;;;;5037388;28;19975;-60
2022/04/22 04:30:12;;;;;;;;;;;7.40;99.90;;;;;;5030417;28;19908;-57
2022/04/22 04:32:37;;;;;;;;;;;7.50;99.90;;;;;;5035418;28;19962;-57
2022/04/22 04:35:03;;;;;;;;;;;7.50;99.90;;;;;;5031620;28;20720;-58
2022/04/22 04:37:28;;;;;;;;;;;7.50;99.90;;;;;;5031269;28;19920;-59
2022/04/22 04:39:55;;;;;;;;;;;7.40;99.90;;;;;;5033103;28;19917;-61
2022/04/22 04:42:21;;;;;;;;;;;7.40;99.90;;;;;;5031066;28;19920;-57
2022/04/22 04:44:46;;;;;;;;;;;7.30;99.90;;;;;;5034870;28;19913;-58
2022/04/22 04:47:11;;;;;;;;;;;7.30;99.90;;;;;;5036332;28;20391;-59
2022/04/22 04:49:37;;;;;;;;;;;7.40;99.90;;;;;;5032502;28;20567;-59
2022/04/22 04:52:02;;;;;;;;;;;7.50;99.90;;;;;;5030912;28;19956;-56
2022/04/22 04:54:28;;;;;;;;;;;7.60;99.90;;;;;;5033359;28;19913;-56
2022/04/22 04:56:53;;;;;;;;;;;7.80;99.90;;;;;;5031127;28;21221;-61
2022/04/22 04:59:20;;;;;;;;;;;7.90;99.90;;;;;;5031365;28;19936;-58
2022/04/22 05:01:45;;;;;;;;;;;8.00;99.90;;;;;;5029131;28;19913;-59
2022/04/22 05:04:10;;;;;;;;;;;8.00;99.90;;;;;;5028544;28;19960;-58
2022/04/22 05:06:36;;;;;;;;;;;8.10;99.90;;;;;;5032209;28;19971;-56
2022/04/22 05:09:02;;;;;;;;;;;8.20;99.90;;;;;;5030650;28;19963;-58
2022/04/22 05:11:27;;;;;;;;;;;8.30;99.90;;;;;;5030351;28;19915;-60
2022/04/22 05:13:52;;;;;;;;;;;8.30;99.90;;;;;;5031849;28;20345;-60
2022/04/22 05:16:18;;;;;;;;;;;8.40;99.90;;;;;;5029827;28;20338;-59
2022/04/22 05:18:43;;;;;;;;;;;8.40;99.90;;;;;;5032156;28;20014;-56
2022/04/22 05:21:09;;;;;;;;;;;8.50;99.90;;;;;;5039372;28;19952;-61
2022/04/22 05:23:34;;;;;;;;;;;8.50;99.90;;;;;;5042189;28;19924;-60
2022/04/22 05:26:04;;;;;;;;;;;8.60;99.90;;;;;;5035986;28;20418;-59
2022/04/22 05:28:30;;;;;;;;;;;8.60;99.90;;;;;;5031930;28;19912;-58
2022/04/22 05:33:40;;;;;;;;;;;8.70;99.90;;;;;;5031748;28;19963;-59
2022/04/22 05:36:06;;;;;;;;;;;8.80;99.90;;;;;;5030098;28;19933;-60
2022/04/22 05:38:32;;;;;;;;;;;8.80;99.90;;;;;;5037681;28;20003;-59
2022/04/22 05:40:57;;;;;;;;;;;8.90;99.90;;;;;;5031956;28;20446;-59
2022/04/22 05:43:24;;;;;;;;;;;8.90;99.90;;;;;;5032040;28;19909;-60
2022/04/22 05:45:49;;;;;;;;;;;9.00;99.90;;;;;;5029559;28;19919;-60
2022/04/22 05:48:15;;;;;;;;;;;9.10;99.90;;;;;;5034683;28;20274;-62
2022/04/22 05:50:41;;;;;;;;;;;9.10;99.90;;;;;;5030843;28;19909;-60
2022/04/22 05:53:06;;;;;;;;;;;9.20;99.90;;;;;;5033322;28;20378;-61
2022/04/22 05:55:32;;;;;;;;;;;9.20;99.90;;;;;;5027221;28;19913;-60
2022/04/22 05:57:57;;;;;;;;;;;9.30;99.90;;;;;;5034509;28;19908;-58
2022/04/22 06:00:24;;;;;;;;;;;9.30;99.90;;;;;;5029001;28;20011;-59
2022/04/22 06:02:50;;;;;;;;;;;9.40;99.90;;;;;;5030000;28;19943;-60
2022/04/22 06:05:16;;;;;;;;;;;9.50;99.90;;;;;;5031311;28;19963;-57
2022/04/22 06:07:42;;;;;;;;;;;9.50;99.90;;;;;;5032754;28;19909;-59
2022/04/22 06:12:53;;;;;;;;;;;9.60;99.90;;;;;;5030311;28;20012;-57
2022/04/22 06:15:19;;;;;;;;;;;9.60;99.90;;;;;;5029639;28;20003;-55
2022/04/22 06:17:44;;;;;;;;;;;9.60;99.90;;;;;;5030076;28;19924;-60
2022/04/22 06:20:09;;;;;;;;;;;9.70;99.90;;;;;;5027513;28;19916;-62
2022/04/22 06:22:35;;;;;;;;;;;9.70;99.90;;;;;;5027143;28;20426;-60
2022/04/22 06:25:00;;;;;;;;;;;9.80;99.90;;;;;;5024012;28;20008;-58
2022/04/22 06:27:26;;;;;;;;;;;9.90;99.90;;;;;;5026881;28;20295;-58
2022/04/22 06:29:53;;;;;;;;;;;10.10;99.90;;;;;;5027454;28;19909;-59
2022/04/22 06:32:18;;;;;;;;;;;10.10;99.90;;;;;;5030793;28;20413;-57
2022/04/22 06:34:44;;;;;;;;;;;10.20;99.90;;;;;;5030779;28;19913;-58
2022/04/22 06:37:11;;;;;;;;;;;10.30;99.90;;;;;;5033873;28;19909;-58
2022/04/22 06:45:46;;;;;;;;;;;10.40;99.90;;;;;;5032033;28;19912;-59
2022/04/22 06:47:51;;;;;;;;;;;10.80;99.90;;;;;;5031249;28;19970;-59
2022/04/22 06:50:19;;;;;;;;;;;10.80;99.90;;;;;;5029115;28;19932;-60
2022/04/22 06:52:47;;;;;;;;;;;10.90;99.90;;;;;;5026534;28;19963;-59
2022/04/22 06:55:13;;;;;;;;;;;10.90;99.90;;;;;;5028986;28;20003;-60
2022/04/22 06:57:39;;;;;;;;;;;11.00;99.90;;;;;;5028695;28;19971;-55
2022/04/22 07:00:05;;;;;;;;;;;11.00;99.90;;;;;;5032647;28;19908;-56
2022/04/22 07:02:31;;;;;;;;;;;11.10;99.90;;;;;;5025281;28;19982;-57
2022/04/22 07:04:57;;;;;;;;;;;11.10;99.90;;;;;;5027955;28;19949;-58
2022/04/22 07:07:22;;;;;;;;;;;11.20;99.90;;;;;;5028711;28;19913;-57
2022/04/22 07:09:48;;;;;;;;;;;11.30;99.90;;;;;;5026990;28;19909;-57
2022/04/22 07:12:14;;;;;;;;;;;11.40;99.90;;;;;;5025620;28;19962;-56
2022/04/22 07:14:42;;;;;;;;;;;11.50;99.90;;;;;;5028946;28;19984;-59
2022/04/22 07:17:09;;;;;;;;;;;11.60;99.90;;;;;;5025224;28;19909;-57
2022/04/22 07:19:34;;;;;;;;;;;11.60;99.90;;;;;;5026800;28;20544;-56
2022/04/22 07:22:00;;;;;;;;;;;11.70;99.90;;;;;;5028514;28;19917;-61
2022/04/22 07:24:26;;;;;;;;;;;11.80;99.90;;;;;;5024176;28;19909;-58
2022/04/22 07:26:53;;;;;;;;;;;11.90;99.90;;;;;;5021331;28;19909;-57
2022/04/22 07:29:18;;;;;;;;;;;12.10;99.90;;;;;;5024850;28;20055;-60
2022/04/22 07:31:44;;;;;;;;;;;12.20;99.90;;;;;;5031595;28;20008;-61
2022/04/22 07:34:10;;;;;;;;;;;12.30;99.90;;;;;;5020238;28;19916;-61
2022/04/22 07:36:36;;;;;;;;;;;12.40;99.90;;;;;;5025134;28;19909;-57
2022/04/22 07:39:01;;;;;;;;;;;12.60;99.90;;;;;;5025533;28;19940;-59
2022/04/22 07:41:28;;;;;;;;;;;12.70;99.90;;;;;;5028635;28;19947;-59
2022/04/22 07:46:48;;;;;;;;;;;13.00;99.90;;;;;;5024030;28;19916;-58
2022/04/22 07:49:14;;;;;;;;;;;13.10;99.90;;;;;;5016967;28;19913;-59
2022/04/22 07:51:40;;;;;;;;;;;13.10;99.90;;;;;;5031443;28;19916;-58
2022/04/22 07:54:07;;;;;;;;;;;13.00;99.90;;;;;;5025113;28;20002;-57
2022/04/22 07:56:33;;;;;;;;;;;13.00;99.90;;;;;;5026428;28;19916;-59
2022/04/22 07:58:58;;;;;;;;;;;13.00;99.90;;;;;;5035769;28;19908;-61
2022/04/22 08:01:25;;;;;;;;;;;13.00;99.90;;;;;;5023903;28;19917;-58
2022/04/22 08:03:53;;;;;;;;;;;13.00;99.90;;;;;;5024239;28;20510;-60
2022/04/22 08:06:19;;;;;;;;;;;13.10;99.90;;;;;;5040311;22;19909;-61
2022/04/22 08:08:44;;;;;;;;;;;13.10;99.90;;;;;;5065795;28;20374;-63
2022/04/22 08:11:09;;;;;;;;;;;13.10;99.90;;;;;;5071988;28;19912;-60
2022/04/22 08:13:35;;;;;;;;;;;13.10;99.90;;;;;;5074707;28;19943;-60
2022/04/22 08:16:01;;;;;;;;;;;13.00;99.90;;;;;;5076123;28;19909;-61
2022/04/22 08:18:26;;;;;;;;;;;13.10;99.90;;;;;;5064867;28;19954;-61
2022/04/22 08:20:52;;;;;;;;;;;13.00;99.90;;;;;;5070044;28;20449;-62
2022/04/22 08:23:20;;;;;;;;;;;13.00;99.90;;;;;;5060194;28;20344;-62
2022/04/22 08:25:45;;;;;;;;;;;13.30;99.90;;;;;;5067266;28;19908;-62
2022/04/22 08:28:11;;;;;;;;;;;13.60;99.90;;;;;;5074058;28;19962;-61
2022/04/22 08:30:36;;;;;;;;;;;13.70;99.90;;;;;;5066670;28;19916;-60
2022/04/22 08:33:02;;;;;;;;;;;13.80;99.90;;;;;;5061893;28;20326;-61
2022/04/22 08:35:28;;;;;;;;;;;13.90;99.90;;;;;;5062455;28;19931;-61
2022/04/22 08:37:53;;;;;;;;;;;14.00;99.90;;;;;;5058204;28;20393;-61
2022/04/22 08:40:19;;;;;;;;;;;14.10;99.90;;;;;;5064946;28;20020;-61
2022/04/22 08:42:46;;;;;;;;;;;14.00;99.90;;;;;;5063455;28;20024;-61
2022/04/22 08:45:12;;;;;;;;;;;14.10;99.90;;;;;;5067161;28;19916;-62
2022/04/22 08:50:22;;;;;;;;;;;14.20;99.90;;;;;;5064148;28;20369;-61
2022/04/22 08:52:54;;;;;;;;;;;14.40;99.90;;;;;;5065399;28;19908;-62
2022/04/22 08:55:20;;;;;;;;;;;14.70;99.90;;;;;;5067241;28;19914;-60
2022/04/22 08:57:47;;;;;;;;;;;14.90;99.90;;;;;;5071837;28;20645;-60
2022/04/22 09:00:13;;;;;;;;;;;15.00;99.90;;;;;;5067455;28;19979;-61
2022/04/22 09:02:38;;;;;;;;;;;14.90;99.90;;;;;;5070135;28;19916;-60
2022/04/22 09:05:06;;;;;;;;;;;14.90;99.90;;;;;;5066671;28;20916;-62
2022/04/22 09:07:32;;;;;;;;;;;14.90;99.90;;;;;;5067240;28;20054;-59
2022/04/22 09:09:58;;;;;;;;;;;14.90;99.90;;;;;;5066611;28;19995;-61
2022/04/22 09:12:25;;;;;;;;;;;15.00;99.90;;;;;;5051454;28;19931;-61
2022/04/22 09:14:52;;;;;;;;;;;15.00;99.90;;;;;;5067153;28;19919;-61
2022/04/22 09:17:22;;;;;;;;;;;15.00;99.90;;;;;;5072751;28;20007;-62
2022/04/22 09:19:47;;;;;;;;;;;15.10;99.90;;;;;;5055462;28;19912;-58
2022/04/22 09:22:20;;;;;;;;;;;15.20;99.90;;;;;;5061114;28;19931;-62
2022/04/22 09:24:50;;;;;;;;;;;15.20;99.90;;;;;;5063526;28;20010;-60
2022/04/22 09:27:16;;;;;;;;;;;15.20;99.90;;;;;;5065793;28;20363;-59
2022/04/22 09:29:53;;;;;;;;;;;15.40;99.90;;;;;;5067481;28;19912;-62
2022/04/22 09:32:25;;;;;;;;;;;15.40;99.90;;;;;;5068800;28;20499;-59
2022/04/22 09:34:51;;;;;;;;;;;15.50;99.90;;;;;;5066261;28;19912;-59
2022/04/22 09:42:51;;;;;;;;;;;15.90;99.90;;;;;;5066154;28;19926;-59
2022/04/22 09:45:16;;;;;;;;;;;16.00;99.90;;;;;;5068030;28;19926;-61
2022/04/22 09:47:42;;;;;;;;;;;16.00;99.90;;;;;;5067945;28;19908;-61
2022/04/22 09:50:11;;;;;;;;;;;16.10;99.90;;;;;;5066051;28;19913;-62
2022/04/22 09:52:39;;;;;;;;;;;16.00;99.90;;;;;;5064122;28;20038;-61
2022/04/22 09:55:06;;;;;;;;;;;15.80;99.90;;;;;;5067624;28;19998;-62
2022/04/22 09:57:52;;;;;;;;;;;15.90;99.90;;;;;;5067987;28;19943;-59
2022/04/22 10:00:28;;;;;;;;;;;15.70;99.90;;;;;;5063616;28;19984;-61
2022/04/22 10:02:54;;;;;;;;;;;15.60;99.90;;;;;;5068224;28;19916;-61
2022/04/22 10:05:21;;;;;;;;;;;15.50;99.90;;;;;;5071862;28;19908;-60
2022/04/22 10:07:53;;;;;;;;;;;15.30;99.90;;;;;;5088150;28;19912;-61
2022/04/22 10:10:23;;;;;;;;;;;15.60;99.90;;;;;;5069681;28;20003;-59
2022/04/22 10:12:49;;;;;;;;;;;16.00;99.90;;;;;;5061330;28;19913;-60
2022/04/22 10:15:17;;;;;;;;;;;16.10;99.90;;;;;;5063953;28;19908;-62
2022/04/22 10:17:44;;;;;;;;;;;16.40;99.90;;;;;;5067262;28;19987;-61
2022/04/22 10:20:10;;;;;;;;;;;16.60;99.90;;;;;;5066937;28;19934;-61
2022/04/22 10:22:36;;;;;;;;;;;16.80;99.90;;;;;;5063565;28;19913;-61
2022/04/22 10:25:08;;;;;;;;;;;16.80;99.90;;;;;;5073323;28;19983;-59
2022/04/22 10:27:34;;;;;;;;;;;17.30;99.90;;;;;;5067455;28;19908;-61
2022/04/22 10:30:01;;;;;;;;;;;17.60;99.90;;;;;;5063075;28;20267;-59
2022/04/22 10:32:27;;;;;;;;;;;17.80;99.90;;;;;;5049014;28;19909;-61
2022/04/22 10:34:57;;;;;;;;;;;18.00;99.90;;;;;;5066773;28;19909;-60
2022/04/22 10:37:26;;;;;;;;;;;18.00;99.90;;;;;;5064162;28;19912;-61
2022/04/22 10:39:53;;;;;;;;;;;17.90;99.90;;;;;;5068730;28;19908;-61
2022/04/22 10:42:18;;;;;;;;;;;18.20;99.90;;;;;;5067764;28;20286;-61
2022/04/22 10:47:41;;;;;;;;;;;18.50;99.90;;;;;;5061292;28;19924;-60
2022/04/22 10:50:26;;;;;;;;;;;18.40;99.90;;;;;;5062226;28;20046;-60
2022/04/22 10:53:15;;;;;;;;;;;18.50;99.90;;;;;;5064542;28;19939;-60
2022/04/22 10:55:41;;;;;;;;;;;18.40;99.90;;;;;;5055516;28;19916;-62
2022/04/22 10:58:13;;;;;;;;;;;18.90;99.90;;;;;;5065454;28;19908;-61
2022/04/22 11:00:42;;;;;;;;;;;19.10;99.90;;;;;;5068953;28;19917;-60
2022/04/22 11:03:19;;;;;;;;;;;19.30;99.90;;;;;;5049562;28;19912;-61
2022/04/22 11:05:56;;;;;;;;;;;19.20;99.90;;;;;;5065658;28;19916;-60
2022/04/22 11:08:29;;;;;;;;;;;19.20;99.90;;;;;;5067114;28;19912;-60
2022/04/22 11:10:54;;;;;;;;;;;19.20;99.90;;;;;;5066670;28;19916;-59
2022/04/22 11:13:26;;;;;;;;;;;19.00;99.90;;;;;;5069943;28;20786;-61
2022/04/22 11:15:51;;;;;;;;;;;18.60;99.90;;;;;;5069161;28;19908;-60
2022/04/22 11:18:17;;;;;;;;;;;18.10;99.90;;;;;;5066443;28;20281;-60
2022/04/22 11:20:44;;;;;;;;;;;18.30;99.90;;;;;;5067784;28;20820;-62
2022/04/22 11:23:13;;;;;;;;;;;18.50;99.90;;;;;;5068148;28;19954;-60
2022/04/22 11:25:40;;;;;;;;;;;19.00;99.90;;;;;;5068440;28;20274;-61
2022/04/22 11:28:06;;;;;;;;;;;19.40;99.90;;;;;;5064099;28;19950;-61
2022/04/22 11:30:32;;;;;;;;;;;19.90;99.90;;;;;;5067472;28;19912;-61
2022/04/22 11:33:04;;;;;;;;;;;19.80;99.90;;;;;;5067867;28;20009;-62
2022/04/22 11:35:32;;;;;;;;;;;19.70;99.90;;;;;;5069018;28;20289;-61
2022/04/22 11:37:59;;;;;;;;;;;18.90;99.90;;;;;;5065539;28;19995;-59
2022/04/22 11:40:25;;;;;;;;;;;18.70;99.90;;;;;;5066362;28;19916;-61
2022/04/22 11:42:54;;;;;;;;;;;19.20;99.90;;;;;;5066866;28;19919;-61
2022/04/22 11:45:20;;;;;;;;;;;19.60;99.90;;;;;;5068634;28;19908;-63
2022/04/22 11:47:45;;;;;;;;;;;19.70;99.90;;;;;;5067727;28;20318;-62
2022/04/22 11:50:18;;;;;;;;;;;20.10;99.90;;;;;;5068256;28;20423;-64
2022/04/22 11:52:44;;;;;;;;;;;19.90;99.90;;;;;;5063900;28;19920;-62
2022/04/22 11:55:09;;;;;;;;;;;19.60;99.90;;;;;;5070180;28;19914;-62
2022/04/22 11:57:37;;;;;;;;;;;19.10;99.90;;;;;;5068804;28;19995;-62
2022/04/22 12:05:35;;;;;;;;;;;18.40;99.90;;;;;;5073620;28;20480;-60
2022/04/22 12:08:01;;;;;;;;;;;18.40;99.90;;;;;;5069034;28;20370;-60
2022/04/22 12:10:30;;;;;;;;;;;18.50;99.90;;;;;;5067623;28;19908;-61
2022/04/22 12:13:00;;;;;;;;;;;18.60;99.90;;;;;;5065281;28;19915;-60
2022/04/22 12:15:26;;;;;;;;;;;18.80;99.90;;;;;;5071559;28;20370;-61
2022/04/22 12:17:52;;;;;;;;;;;19.20;99.90;;;;;;5066657;28;20090;-61
2022/04/22 12:20:18;;;;;;;;;;;19.60;99.90;;;;;;5069722;28;20396;-61
2022/04/22 12:22:43;;;;;;;;;;;19.40;99.90;;;;;;5067969;28;19912;-62
2022/04/22 12:25:10;;;;;;;;;;;18.90;99.90;;;;;;5069306;28;19950;-63
2022/04/22 12:27:36;;;;;;;;;;;18.70;99.90;;;;;;5071951;28;20267;-62
2022/04/22 12:30:02;;;;;;;;;;;18.60;99.90;;;;;;5071356;28;19998;-61
2022/04/22 12:32:27;;;;;;;;;;;18.70;99.90;;;;;;5077622;28;20439;-62
2022/04/22 12:35:08;;;;;;;;;;;18.90;99.90;;;;;;5073562;28;19908;-62
2022/04/22 12:37:33;;;;;;;;;;;18.80;99.90;;;;;;5072626;28;19912;-61
2022/04/22 12:40:07;;;;;;;;;;;18.90;99.90;;;;;;5069656;28;19958;-62
2022/04/22 12:42:35;;;;;;;;;;;18.70;99.90;;;;;;5068490;28;19919;-61
2022/04/22 12:53:29;;;;;;;;;;;19.60;99.90;;;;;;5066937;28;19916;-62
2022/04/22 12:56:02;;;;;;;;;;;20.10;99.90;;;;;;5067864;28;20390;-63
2022/04/22 12:58:28;;;;;;;;;;;19.90;99.90;;;;;;5068459;28;19916;-62
2022/04/22 13:00:53;;;;;;;;;;;19.90;99.90;;;;;;5071925;28;19916;-63
2022/04/22 13:03:21;;;;;;;;;;;20.10;99.90;;;;;;5072510;28;19909;-63
2022/04/22 13:05:47;;;;;;;;;;;20.70;99.90;;;;;;5074147;28;19908;-62
2022/04/22 13:08:15;;;;;;;;;;;21.30;99.00;;;;;;5070485;28;20628;-62
2022/04/22 13:10:41;;;;;;;;;;;21.50;98.90;;;;;;5068594;28;20670;-62
2022/04/22 13:13:11;;;;;;;;;;;21.80;99.50;;;;;;5069385;28;20297;-62
2022/04/22 13:15:36;;;;;;;;;;;22.20;97.80;;;;;;5071222;28;19965;-60
2022/04/22 13:18:01;;;;;;;;;;;22.20;97.30;;;;;;5067083;28;19916;-62
2022/04/22 13:20:27;;;;;;;;;;;22.20;98.30;;;;;;5071800;28;20289;-62
2022/04/22 13:22:52;;;;;;;;;;;22.30;97.40;;;;;;5069537;28;19971;-62
2022/04/22 13:25:19;;;;;;;;;;;22.30;96.80;;;;;;5069972;28;19908;-61
2022/04/22 13:27:45;;;;;;;;;;;22.20;98.70;;;;;;5073895;28;19908;-62
2022/04/22 13:30:11;;;;;;;;;;;22.20;96.60;;;;;;5069667;28;20625;-62
2022/04/22 13:32:37;;;;;;;;;;;22.30;94.90;;;;;;5070353;28;20258;-60
2022/04/22 13:35:04;;;;;;;;;;;21.70;96.70;;;;;;5067915;28;19908;-61
2022/04/22 13:37:33;;;;;;;;;;;22.10;96.70;;;;;;5065438;28;20054;-61
2022/04/22 13:39:59;;;;;;;;;;;22.20;96.80;;;;;;5066854;28;19916;-62
2022/04/22 13:42:24;;;;;;;;;;;22.90;95.20;;;;;;5066649;28;19913;-62
2022/04/22 13:53:04;;;;;;;;;;;21.40;94.50;;;;;;5066456;28;19915;-61
2022/04/22 13:55:29;;;;;;;;;;;20.80;95.90;;;;;;5070308;28;19995;-61
2022/04/22 13:57:56;;;;;;;;;;;20.50;96.80;;;;;;5065576;28;20384;-61
2022/04/22 14:00:22;;;;;;;;;;;20.30;99.30;;;;;;5066556;28;19935;-62
2022/04/22 14:02:48;;;;;;;;;;;20.40;98.90;;;;;;5076520;28;19971;-62
2022/04/22 14:05:20;;;;;;;;;;;20.30;98.10;;;;;;5067017;28;19908;-61
2022/04/22 14:07:45;;;;;;;;;;;20.20;97.60;;;;;;5068384;28;19916;-62
2022/04/22 14:10:11;;;;;;;;;;;20.10;97.90;;;;;;5078896;22;19924;-58
2022/04/22 14:12:36;;;;;;;;;;;20.10;98.10;;;;;;5045622;28;19939;-58
2022/04/22 14:15:02;;;;;;;;;;;20.00;97.90;;;;;;5049372;28;19917;-55
2022/04/22 14:17:27;;;;;;;;;;;19.90;97.60;;;;;;5048833;28;20312;-53
2022/04/22 14:19:53;;;;;;;;;;;19.80;98.00;;;;;;5040227;28;19913;-56
2022/04/22 14:22:18;;;;;;;;;;;19.70;98.70;;;;;;5041139;28;21748;-57
2022/04/22 14:24:44;;;;;;;;;;;19.60;98.50;;;;;;5047603;28;19916;-58
2022/04/22 14:27:11;;;;;;;;;;;19.50;99.30;;;;;;5046352;28;20413;-54
2022/04/22 14:29:37;;;;;;;;;;;19.40;99.90;;;;;;5057280;28;19924;-57
2022/04/22 14:32:03;;;;;;;;;;;19.40;99.60;;;;;;5058378;28;20282;-56
2022/04/22 14:34:29;;;;;;;;;;;19.20;99.60;;;;;;5047285;28;19916;-57
2022/04/22 14:36:54;;;;;;;;;;;19.30;99.60;;;;;;5048140;28;20333;-56
2022/04/22 14:39:20;;;;;;;;;;;19.30;99.40;;;;;;5045740;28;20018;-55
2022/04/22 14:41:48;;;;;;;;;;;19.40;99.60;;;;;;5043891;28;19919;-53
2022/04/22 14:44:14;;;;;;;;;;;19.60;99.00;;;;;;5047982;28;20306;-56
2022/04/22 14:46:40;;;;;;;;;;;19.80;99.10;;;;;;5045597;28;19920;-57
2022/04/22 14:49:06;;;;;;;;;;;20.00;98.80;;;;;;5044231;28;19909;-56
2022/04/22 14:51:32;;;;;;;;;;;20.10;99.30;;;;;;5047187;28;19915;-53
2022/04/22 14:53:57;;;;;;;;;;;20.00;99.80;;;;;;5046153;28;20385;-55
2022/04/22 14:56:23;;;;;;;;;;;20.00;99.40;;;;;;5048557;28;19912;-56
2022/04/22 14:58:51;;;;;;;;;;;20.00;99.90;;;;;;5043711;28;19912;-58
2022/04/22 15:01:17;;;;;;;;;;;20.10;99.90;;;;;;5041594;28;20010;-52
2022/04/22 15:03:43;;;;;;;;;;;20.10;99.80;;;;;;5049436;28;20389;-57
2022/04/22 15:06:09;;;;;;;;;;;20.00;99.80;;;;;;5050972;28;19909;-55
2022/04/22 15:08:34;;;;;;;;;;;19.70;99.60;;;;;;5046683;28;19916;-55
2022/04/22 15:11:00;;;;;;;;;;;19.60;99.90;;;;;;5046081;28;19917;-56
2022/04/22 15:13:26;;;;;;;;;;;19.50;99.90;;;;;;5045962;28;19943;-54
2022/04/22 15:15:51;;;;;;;;;;;19.30;99.90;;;;;;5046426;28;20393;-56
2022/04/22 15:26:30;;;;;;;;;;;18.90;99.90;;;;;;5045784;28;20328;-52
2022/04/22 15:28:55;;;;;;;;;;;19.00;99.90;;;;;;5048243;28;19908;-54
2022/04/22 15:31:22;;;;;;;;;;;19.00;99.90;;;;;;5045488;28;20302;-52
2022/04/22 15:33:48;;;;;;;;;;;19.10;99.90;;;;;;5053639;28;19908;-54
2022/04/22 15:36:13;;;;;;;;;;;19.20;99.90;;;;;;5052376;28;19904;-52
2022/04/22 15:38:43;;;;;;;;;;;19.30;99.90;;;;;;5045750;28;19981;-54
2022/04/22 15:41:21;;;;;;;;;;;19.30;99.90;;;;;;5048101;28;19920;-54